createdAt,value
2022-09-16T00:00:56.409Z,11.90
2022-09-16T00:03:24.203Z,12.00
2022-09-16T00:05:53.713Z,11.90
2022-09-16T00:08:23.633Z,11.90
2022-09-16T00:10:52.131Z,11.90
2022-09-16T00:13:20.363Z,11.90
2022-09-16T00:15:50.643Z,11.90
2022-09-16T00:18:19.429Z,11.90
2022-09-16T00:20:47.823Z,11.90
2022-09-16T00:23:15.803Z,11.90
2022-09-16T00:25:44.859Z,11.90
2022-09-16T00:28:12.602Z,11.90
2022-09-16T00:30:40.285Z,11.90
2022-09-16T00:33:09.407Z,11.90
2022-09-16T00:35:37.147Z,11.90
2022-09-16T00:38:04.852Z,11.90
2022-09-16T00:40:32.615Z,11.90
2022-09-16T00:43:01.749Z,11.90
2022-09-16T00:45:31.615Z,12.00
2022-09-16T00:48:01.946Z,11.90
2022-09-16T00:50:36.256Z,11.90
2022-09-16T00:53:04.046Z,11.90
2022-09-16T00:55:34.544Z,12.00
2022-09-16T00:58:08.468Z,12.00
2022-09-16T01:00:36.871Z,12.00
2022-09-16T01:03:05.205Z,12.00
2022-09-16T01:05:33.114Z,12.00
2022-09-16T01:08:01.031Z,12.00
2022-09-16T01:10:28.822Z,12.00
2022-09-16T01:12:59.917Z,11.90
2022-09-16T01:15:36.918Z,11.90
2022-09-16T01:18:16.458Z,11.90
2022-09-16T01:21:17.269Z,11.90
2022-09-16T01:24:04.797Z,11.90
2022-09-16T01:27:01.339Z,11.90
2022-09-16T01:29:44.038Z,11.90
2022-09-16T01:32:18.075Z,11.90
2022-09-16T01:34:51.296Z,11.80
2022-09-16T01:37:30.985Z,11.80
2022-09-16T01:40:06.824Z,11.80
2022-09-16T01:42:41.200Z,11.80
2022-09-16T01:45:17.468Z,11.80
2022-09-16T01:47:55.926Z,11.80
2022-09-16T01:50:28.599Z,11.70
2022-09-16T01:53:04.113Z,11.70
2022-09-16T01:55:36.826Z,11.70
2022-09-16T01:58:10.323Z,11.70
2022-09-16T02:00:40.793Z,11.70
2022-09-16T02:03:14.250Z,11.60
2022-09-16T02:05:48.548Z,11.60
2022-09-16T02:08:21.746Z,11.60
2022-09-16T02:10:54.990Z,11.60
2022-09-16T02:13:27.417Z,11.60
2022-09-16T02:16:00.205Z,11.60
2022-09-16T02:18:33.779Z,11.60
2022-09-16T02:21:04.794Z,11.60
2022-09-16T02:23:36.736Z,11.60
2022-09-16T02:26:07.654Z,11.60
2022-09-16T02:28:38.790Z,11.60
2022-09-16T02:31:09.463Z,11.60
2022-09-16T02:33:44.767Z,11.60
2022-09-16T02:36:16.997Z,11.70
2022-09-16T02:38:46.897Z,11.70
2022-09-16T02:41:15.455Z,11.70
2022-09-16T02:43:43.766Z,11.70
2022-09-16T02:46:19.941Z,11.70
2022-09-16T02:48:58.918Z,11.70
2022-09-16T02:51:34.795Z,11.60
2022-09-16T02:54:08.966Z,11.60
2022-09-16T02:56:39.262Z,11.60
2022-09-16T02:59:09.638Z,11.60
2022-09-16T03:01:41.307Z,11.60
2022-09-16T03:04:12.703Z,11.60
2022-09-16T03:06:40.826Z,11.50
2022-09-16T03:09:12.160Z,11.50
2022-09-16T03:12:00.599Z,11.60
2022-09-16T03:14:57.500Z,11.60
2022-09-16T03:17:39.401Z,11.60
2022-09-16T03:20:16.376Z,11.60
2022-09-16T03:22:50.102Z,11.60
2022-09-16T03:25:27.557Z,11.60
2022-09-16T03:28:03.411Z,11.60
2022-09-16T03:30:34.182Z,11.60
2022-09-16T03:33:06.713Z,11.60
2022-09-16T03:35:43.908Z,11.50
2022-09-16T03:38:14.233Z,11.50
2022-09-16T03:40:43.706Z,11.50
2022-09-16T03:43:12.874Z,11.50
2022-09-16T03:45:42.619Z,11.50
2022-09-16T03:48:11.591Z,11.50
2022-09-16T03:50:40.902Z,11.50
2022-09-16T03:53:08.930Z,11.50
2022-09-16T03:55:36.821Z,11.40
2022-09-16T03:58:04.725Z,11.40
2022-09-16T04:00:32.946Z,11.30
2022-09-16T04:03:01.395Z,11.30
2022-09-16T04:05:29.912Z,11.30
2022-09-16T04:07:58.965Z,11.30
2022-09-16T04:10:26.806Z,11.20
2022-09-16T04:12:58.496Z,11.20
2022-09-16T04:15:26.361Z,11.20
2022-09-16T04:17:56.076Z,11.10
2022-09-16T04:20:23.893Z,11.10
2022-09-16T04:22:51.618Z,11.10
2022-09-16T04:25:20.674Z,11.10
2022-09-16T04:27:48.377Z,11.00
2022-09-16T04:30:16.245Z,11.00
2022-09-16T04:32:43.935Z,11.00
2022-09-16T04:35:11.635Z,11.00
2022-09-16T04:37:39.367Z,11.00
2022-09-16T04:40:07.796Z,10.90
2022-09-16T04:42:36.896Z,10.90
2022-09-16T04:45:05.163Z,10.90
2022-09-16T04:47:32.914Z,10.90
2022-09-16T04:50:00.697Z,10.90
2022-09-16T04:52:31.550Z,10.90
2022-09-16T04:54:59.505Z,10.90
2022-09-16T04:57:30.758Z,10.80
2022-09-16T04:59:59.872Z,10.80
2022-09-16T05:02:28.576Z,10.80
2022-09-16T05:04:56.479Z,10.80
2022-09-16T05:07:24.254Z,10.80
2022-09-16T05:09:52.411Z,10.80
2022-09-16T05:12:20.126Z,10.80
2022-09-16T05:14:47.830Z,10.80
2022-09-16T05:17:39.416Z,10.80
2022-09-16T05:20:05.209Z,10.90
2022-09-16T05:22:32.914Z,10.90
2022-09-16T05:25:00.673Z,10.90
2022-09-16T05:27:31.448Z,10.90
2022-09-16T05:29:59.172Z,10.90
2022-09-16T05:32:28.257Z,10.90
2022-09-16T05:34:56.160Z,10.90
2022-09-16T05:37:23.950Z,10.90
2022-09-16T05:39:52.432Z,10.90
2022-09-16T05:42:20.137Z,10.90
2022-09-16T05:44:47.907Z,11.00
2022-09-16T05:50:59.428Z,11.00
2022-09-16T05:53:28.283Z,11.00
2022-09-16T05:55:57.775Z,11.10
2022-09-16T05:58:25.889Z,11.10
2022-09-16T06:00:58.751Z,11.10
2022-09-16T06:03:26.973Z,11.10
2022-09-16T06:05:59.802Z,11.10
2022-09-16T06:08:29.472Z,11.20
2022-09-16T06:10:57.416Z,11.20
2022-09-16T06:13:25.122Z,11.20
2022-09-16T06:15:54.753Z,11.20
2022-09-16T06:18:23.405Z,11.20
2022-09-16T06:20:51.844Z,11.20
2022-09-16T06:23:20.320Z,11.20
2022-09-16T06:25:49.538Z,11.30
2022-09-16T06:28:17.254Z,11.30
2022-09-16T06:30:45.062Z,11.30
2022-09-16T06:33:12.812Z,11.30
2022-09-16T06:35:40.503Z,11.30
2022-09-16T06:38:08.224Z,11.30
2022-09-16T06:40:35.963Z,11.30
2022-09-16T06:43:05.043Z,11.40
2022-09-16T06:45:32.745Z,11.50
2022-09-16T06:48:02.319Z,11.50
2022-09-16T06:50:30.022Z,11.60
2022-09-16T06:53:00.543Z,11.70
2022-09-16T06:55:28.491Z,11.80
2022-09-16T06:57:58.022Z,11.90
2022-09-16T07:00:27.084Z,12.00
2022-09-16T07:02:54.777Z,12.10
2022-09-16T07:05:22.537Z,12.20
2022-09-16T07:07:50.246Z,12.30
2022-09-16T07:10:17.971Z,12.30
2022-09-16T07:12:45.686Z,12.30
2022-09-16T07:15:13.489Z,12.30
2022-09-16T07:17:42.566Z,12.20
2022-09-16T07:20:10.912Z,12.20
2022-09-16T07:22:38.672Z,12.10
2022-09-16T07:25:07.164Z,12.10
2022-09-16T07:27:35.041Z,12.10
2022-09-16T07:30:06.834Z,12.10
2022-09-16T07:32:36.610Z,12.10
2022-09-16T07:35:06.323Z,12.10
2022-09-16T07:37:40.560Z,12.20
2022-09-16T07:40:11.023Z,12.20
2022-09-16T07:42:38.784Z,12.30
2022-09-16T07:45:07.321Z,12.30
2022-09-16T07:47:35.383Z,12.30
2022-09-16T07:50:03.099Z,12.30
2022-09-16T07:52:32.244Z,12.40
2022-09-16T07:55:00.115Z,12.40
2022-09-16T07:57:27.825Z,12.40
2022-09-16T07:59:56.362Z,12.40
2022-09-16T08:02:24.202Z,12.50
2022-09-16T08:04:52.039Z,12.50
2022-09-16T08:07:19.755Z,12.60
2022-09-16T08:09:50.845Z,12.60
2022-09-16T08:12:19.443Z,12.70
2022-09-16T08:14:47.411Z,12.70
2022-09-16T08:17:15.139Z,12.70
2022-09-16T08:19:42.839Z,12.70
2022-09-16T08:22:10.610Z,12.80
2022-09-16T08:24:38.343Z,12.80
2022-09-16T08:27:07.791Z,12.90
2022-09-16T08:29:35.602Z,13.00
2022-09-16T08:32:03.655Z,13.00
2022-09-16T08:34:31.413Z,13.20
2022-09-16T08:36:59.136Z,13.20
2022-09-16T08:39:26.835Z,13.30
2022-09-16T08:42:25.869Z,13.40
2022-09-16T08:45:00.900Z,13.50
2022-09-16T08:47:42.038Z,13.50
2022-09-16T08:50:16.397Z,13.60
2022-09-16T08:52:45.911Z,13.50
2022-09-16T08:55:18.454Z,13.50
2022-09-16T08:57:55.142Z,13.50
2022-09-16T09:00:23.088Z,13.60
2022-09-16T09:02:55.617Z,13.70
2022-09-16T09:05:31.034Z,13.80
2022-09-16T09:08:09.739Z,13.90
2022-09-16T09:10:43.558Z,13.90
2022-09-16T09:13:29.220Z,14.10
2022-09-16T09:16:04.012Z,14.10
2022-09-16T09:18:41.750Z,14.20
2022-09-16T09:21:20.650Z,14.20
2022-09-16T09:24:03.137Z,14.20
2022-09-16T09:26:41.163Z,14.30
2022-09-16T09:29:38.607Z,14.30
2022-09-16T09:32:17.966Z,14.30
2022-09-16T09:34:58.189Z,14.30
2022-09-16T09:37:50.123Z,14.40
2022-09-16T09:40:23.894Z,14.40
2022-09-16T09:42:59.727Z,14.50
2022-09-16T09:45:32.240Z,14.50
2022-09-16T09:48:09.270Z,14.50
2022-09-16T09:50:41.453Z,14.50
2022-09-16T09:53:18.118Z,14.60
2022-09-16T09:55:45.934Z,14.60
2022-09-16T09:58:22.351Z,14.70
2022-09-16T10:00:53.041Z,14.70
2022-09-16T10:03:21.236Z,14.70
2022-09-16T10:05:49.177Z,14.80
2022-09-16T10:08:24.807Z,14.80
2022-09-16T10:10:54.451Z,14.80
2022-09-16T10:13:23.850Z,14.90
2022-09-16T10:15:55.892Z,14.90
2022-09-16T10:18:29.551Z,15.00
2022-09-16T10:21:06.855Z,15.10
2022-09-16T10:23:36.264Z,15.00
2022-09-16T10:26:17.814Z,14.90
2022-09-16T10:28:56.227Z,14.90
2022-09-16T10:31:33.588Z,14.80
2022-09-16T10:34:03.723Z,14.90
2022-09-16T10:36:35.502Z,15.10
2022-09-16T10:39:05.873Z,15.30
2022-09-16T10:41:36.036Z,15.40
2022-09-16T10:44:07.902Z,15.40
2022-09-16T10:46:37.777Z,15.40
2022-09-16T10:49:13.113Z,15.30
2022-09-16T10:51:41.055Z,15.30
2022-09-16T10:54:25.474Z,15.40
2022-09-16T10:56:53.502Z,15.40
2022-09-16T10:59:21.437Z,15.40
2022-09-16T11:02:02.812Z,15.30
2022-09-16T11:04:54.379Z,15.30
2022-09-16T11:07:34.999Z,15.30
2022-09-16T11:10:11.945Z,15.20
2022-09-16T11:13:01.118Z,15.20
2022-09-16T11:15:41.463Z,15.10
2022-09-16T11:18:26.595Z,14.90
2022-09-16T11:21:14.619Z,14.70
2022-09-16T11:24:04.034Z,14.60
2022-09-16T11:26:41.215Z,14.50
2022-09-16T11:29:27.603Z,14.60
2022-09-16T11:32:03.573Z,14.60
2022-09-16T11:34:47.675Z,14.70
2022-09-16T11:37:20.619Z,14.70
2022-09-16T11:40:02.025Z,14.50
2022-09-16T11:42:34.900Z,14.40
2022-09-16T11:45:24.295Z,14.40
2022-09-16T11:48:07.457Z,14.30
2022-09-16T11:50:46.423Z,14.20
2022-09-16T11:53:34.279Z,14.10
2022-09-16T11:56:09.258Z,14.00
2022-09-16T12:01:42.200Z,13.90
2022-09-16T12:04:17.217Z,13.90
2022-09-16T12:06:55.128Z,13.90
2022-09-16T12:09:28.825Z,14.00
2022-09-16T12:12:04.924Z,14.20
2022-09-16T12:14:38.624Z,14.40
2022-09-16T12:17:11.290Z,14.50
2022-09-16T12:19:44.707Z,14.60
2022-09-16T12:22:19.242Z,14.60
2022-09-16T12:24:52.687Z,14.60
2022-09-16T12:27:42.102Z,14.60
2022-09-16T12:30:16.860Z,14.50
2022-09-16T12:32:53.880Z,14.50
2022-09-16T12:35:25.354Z,14.50
2022-09-16T12:37:55.339Z,14.50
2022-09-16T12:40:26.688Z,14.50
2022-09-16T12:43:30.550Z,14.40
2022-09-16T12:46:35.268Z,14.40
2022-09-16T12:49:28.908Z,14.20
2022-09-16T12:52:33.080Z,14.20
2022-09-16T12:55:34.653Z,14.10
2022-09-16T12:58:21.757Z,14.10
2022-09-16T13:00:59.607Z,14.10
2022-09-16T13:03:31.277Z,14.00
2022-09-16T13:06:08.299Z,13.90
2022-09-16T13:08:36.658Z,13.80
2022-09-16T13:11:53.792Z,13.70
2022-09-16T13:13:58.849Z,13.70
2022-09-16T13:16:32.179Z,13.70
2022-09-16T13:19:29.515Z,13.80
2022-09-16T13:21:59.947Z,13.80
2022-09-16T13:24:35.873Z,13.90
2022-09-16T13:27:26.198Z,14.00
2022-09-16T13:30:05.691Z,14.10
2022-09-16T13:32:40.409Z,14.20
2022-09-16T13:35:36.247Z,14.20
2022-09-16T13:38:34.202Z,14.30
2022-09-16T13:41:03.148Z,14.30
2022-09-16T13:43:37.494Z,14.30
2022-09-16T13:46:09.309Z,14.30
2022-09-16T13:48:45.189Z,14.40
2022-09-16T13:51:19.749Z,14.40
2022-09-16T13:53:49.578Z,14.50
2022-09-16T13:56:37.993Z,14.50
2022-09-16T13:59:22.283Z,14.50
2022-09-16T14:02:00.327Z,14.40
2022-09-16T14:04:43.750Z,14.40
2022-09-16T14:07:29.287Z,14.40
2022-09-16T14:10:01.937Z,14.40
2022-09-16T14:12:39.627Z,14.50
2022-09-16T14:15:09.462Z,14.50
2022-09-16T14:17:42.017Z,14.50
2022-09-16T14:20:18.437Z,14.50
2022-09-16T14:22:46.210Z,14.50
2022-09-16T14:25:29.577Z,14.50
2022-09-16T14:28:16.193Z,14.50
2022-09-16T14:30:52.978Z,14.50
2022-09-16T14:33:24.332Z,14.50
2022-09-16T14:35:54.781Z,14.50
2022-09-16T14:38:44.274Z,14.50
2022-09-16T14:41:23.648Z,14.50
2022-09-16T14:43:52.821Z,14.50
2022-09-16T14:46:21.931Z,14.50
2022-09-16T14:48:50.042Z,14.50
2022-09-16T14:51:23.762Z,14.40
2022-09-16T14:54:15.250Z,14.40
2022-09-16T14:56:43.180Z,14.40
2022-09-16T14:59:13.709Z,14.40
2022-09-16T15:01:43.448Z,14.30
2022-09-16T15:04:18.344Z,14.30
2022-09-16T15:06:52.016Z,14.30
2022-09-16T15:09:27.019Z,14.30
2022-09-16T15:11:58.332Z,14.20
2022-09-16T15:14:27.088Z,14.20
2022-09-16T15:16:59.892Z,14.20
2022-09-16T15:19:31.175Z,14.20
2022-09-16T15:21:58.966Z,14.20
2022-09-16T15:24:31.163Z,14.10
2022-09-16T15:27:00.254Z,14.00
2022-09-16T15:29:33.962Z,14.00
2022-09-16T15:32:19.335Z,14.00
2022-09-16T15:34:47.096Z,14.00
2022-09-16T15:37:30.822Z,13.90
2022-09-16T15:40:09.536Z,13.90
2022-09-16T15:42:38.142Z,13.90
2022-09-16T15:45:17.210Z,13.90
2022-09-16T15:47:56.358Z,13.80
2022-09-16T15:50:25.812Z,13.80
2022-09-16T15:53:02.517Z,13.70
2022-09-16T15:55:36.274Z,13.70
2022-09-16T15:58:10.503Z,13.70
2022-09-16T16:01:02.637Z,13.60
2022-09-16T16:03:37.186Z,13.60
2022-09-16T16:06:05.238Z,13.60
2022-09-16T16:08:45.975Z,13.60
2022-09-16T16:11:15.895Z,13.50
2022-09-16T16:13:44.151Z,13.50
2022-09-16T16:16:14.253Z,13.50
2022-09-16T16:18:45.086Z,13.50
2022-09-16T16:21:15.661Z,13.40
2022-09-16T16:23:43.781Z,13.40
2022-09-16T16:26:12.495Z,13.40
2022-09-16T16:28:40.434Z,13.40
2022-09-16T16:31:10.223Z,13.40
2022-09-16T16:33:46.101Z,13.40
2022-09-16T16:36:16.901Z,13.40
2022-09-16T16:38:46.277Z,13.40
2022-09-16T16:41:14.185Z,13.30
2022-09-16T16:43:41.927Z,13.30
2022-09-16T16:46:09.751Z,13.20
2022-09-16T16:48:37.975Z,13.20
2022-09-16T16:51:08.645Z,13.10
2022-09-16T16:53:37.975Z,13.10
2022-09-16T16:56:11.274Z,13.10
2022-09-16T16:58:42.882Z,13.00
2022-09-16T17:01:12.652Z,13.00
2022-09-16T17:03:40.775Z,12.90
2022-09-16T17:06:08.945Z,12.90
2022-09-16T17:08:38.337Z,12.90
2022-09-16T17:11:08.243Z,12.80
2022-09-16T17:13:35.953Z,12.80
2022-09-16T17:16:04.474Z,12.70
2022-09-16T17:18:34.441Z,12.70
2022-09-16T17:21:03.975Z,12.60
2022-09-16T17:23:31.951Z,12.60
2022-09-16T17:26:01.686Z,12.60
2022-09-16T17:28:29.590Z,12.50
2022-09-16T17:30:57.425Z,12.50
2022-09-16T17:33:26.212Z,12.50
2022-09-16T17:36:01.567Z,12.50
2022-09-16T17:38:29.743Z,12.40
2022-09-16T17:41:03.862Z,12.30
2022-09-16T17:43:32.611Z,12.30
2022-09-16T17:46:00.787Z,12.30
2022-09-16T17:48:29.302Z,12.20
2022-09-16T17:50:57.659Z,12.20
2022-09-16T17:53:26.043Z,12.20
2022-09-16T17:55:54.111Z,12.10
2022-09-16T17:58:25.810Z,12.10
2022-09-16T18:00:53.514Z,12.00
2022-09-16T18:03:21.596Z,12.00
2022-09-16T18:05:51.346Z,12.00
2022-09-16T18:08:19.103Z,11.90
2022-09-16T18:10:53.285Z,11.90
2022-09-16T18:13:20.984Z,11.90
2022-09-16T18:15:50.039Z,11.90
2022-09-16T18:18:19.116Z,11.90
2022-09-16T18:20:52.671Z,11.90
2022-09-16T18:23:20.612Z,11.80
2022-09-16T18:25:48.330Z,11.80
2022-09-16T18:28:16.375Z,11.80
2022-09-16T18:30:44.930Z,11.70
2022-09-16T18:33:14.159Z,11.70
2022-09-16T18:35:41.899Z,11.70
2022-09-16T18:38:12.852Z,11.70
2022-09-16T18:40:40.613Z,11.60
2022-09-16T18:43:08.357Z,11.60
2022-09-16T18:45:36.575Z,11.60
2022-09-16T18:48:04.546Z,11.50
2022-09-16T18:50:34.444Z,11.50
2022-09-16T18:53:02.595Z,11.50
2022-09-16T18:55:31.336Z,11.50
2022-09-16T18:57:59.051Z,11.40
2022-09-16T19:00:26.782Z,11.40
2022-09-16T19:02:54.502Z,11.40
2022-09-16T19:05:22.216Z,11.40
2022-09-16T19:07:51.269Z,11.30
2022-09-16T19:10:19.025Z,11.30
2022-09-16T19:12:46.747Z,11.30
2022-09-16T19:15:15.389Z,11.30
2022-09-16T19:17:43.174Z,11.30
2022-09-16T19:20:11.179Z,11.30
2022-09-16T19:22:38.879Z,11.30
2022-09-16T19:25:08.471Z,11.20
2022-09-16T19:27:37.147Z,11.20
2022-09-16T19:30:05.446Z,11.20
2022-09-16T19:32:33.215Z,11.20
2022-09-16T19:35:01.100Z,11.20
2022-09-16T19:37:28.862Z,11.10
2022-09-16T19:39:56.649Z,11.10
2022-09-16T19:42:25.738Z,11.10
2022-09-16T19:44:53.469Z,11.10
2022-09-16T19:47:21.172Z,11.00
2022-09-16T19:49:48.920Z,11.00
2022-09-16T19:52:16.614Z,11.00
2022-09-16T19:54:44.343Z,11.00
2022-09-16T19:57:12.047Z,10.90
2022-09-16T19:59:42.728Z,11.00
2022-09-16T20:02:11.185Z,11.00
2022-09-16T20:04:39.344Z,10.90
2022-09-16T20:07:12.571Z,10.90
2022-09-16T20:09:40.347Z,10.80
2022-09-16T20:12:08.221Z,10.80
2022-09-16T20:14:36.340Z,10.80
2022-09-16T20:17:05.919Z,10.80
2022-09-16T20:19:33.680Z,10.80
2022-09-16T20:22:01.882Z,10.70
2022-09-16T20:24:29.607Z,10.70
2022-09-16T20:26:57.645Z,10.70
2022-09-16T20:29:25.654Z,10.70
2022-09-16T20:31:53.936Z,10.60
2022-09-16T20:34:24.123Z,10.60
2022-09-16T20:36:52.424Z,10.60
2022-09-16T20:39:20.318Z,10.60
2022-09-16T20:41:51.498Z,10.50
2022-09-16T20:44:19.209Z,10.50
2022-09-16T20:46:48.807Z,10.50
2022-09-16T20:49:18.854Z,10.50
2022-09-16T20:51:47.962Z,10.50
2022-09-16T20:54:16.593Z,10.40
2022-09-16T20:56:45.895Z,10.40
2022-09-16T20:59:16.085Z,10.40
2022-09-16T21:01:44.191Z,10.30
2022-09-16T21:04:15.297Z,10.30
2022-09-16T21:06:43.057Z,10.30
2022-09-16T21:09:14.487Z,10.30
2022-09-16T21:11:44.346Z,10.30
2022-09-16T21:14:15.811Z,10.30
2022-09-16T21:16:45.206Z,10.30
2022-09-16T21:19:13.637Z,10.20
2022-09-16T21:21:43.994Z,10.20
2022-09-16T21:24:13.373Z,10.20
2022-09-16T21:26:41.857Z,10.20
2022-09-16T21:29:11.787Z,10.10
2022-09-16T21:31:41.778Z,10.10
2022-09-16T21:34:13.368Z,10.10
2022-09-16T21:36:41.130Z,10.10
2022-09-16T21:39:10.163Z,10.10
2022-09-16T21:41:39.531Z,10.00
2022-09-16T21:44:07.552Z,10.00
2022-09-16T21:46:41.203Z,10.00
2022-09-16T21:49:16.860Z,10.00
2022-09-16T21:51:44.592Z,10.00
2022-09-16T21:54:15.501Z,10.00
2022-09-16T21:56:46.941Z,10.00
2022-09-16T21:59:14.650Z,9.90
2022-09-16T22:01:42.720Z,10.00
2022-09-16T22:04:13.316Z,10.00
2022-09-16T22:06:41.371Z,10.00
2022-09-16T22:09:10.445Z,10.00
2022-09-16T22:11:40.519Z,10.00
2022-09-16T22:14:10.972Z,10.00
2022-09-16T22:16:39.754Z,10.00
2022-09-16T22:19:09.890Z,10.00
2022-09-16T22:21:40.592Z,10.00
2022-09-16T22:24:09.039Z,10.00
2022-09-16T22:26:37.427Z,10.00
2022-09-16T22:29:06.153Z,10.00
2022-09-16T22:31:38.267Z,10.00
2022-09-16T22:34:06.500Z,10.00
2022-09-16T22:36:36.757Z,10.00
2022-09-16T22:39:06.726Z,10.00
2022-09-16T22:41:35.322Z,10.00
2022-09-16T22:44:03.939Z,10.10
2022-09-16T22:46:33.879Z,10.10
2022-09-16T22:49:03.087Z,10.10
2022-09-16T22:51:32.237Z,10.10
2022-09-16T22:53:59.975Z,10.10
2022-09-16T22:56:31.798Z,10.10
2022-09-16T22:59:00.815Z,10.10
2022-09-16T23:01:31.761Z,10.10
2022-09-16T23:04:01.519Z,10.10
2022-09-16T23:06:32.733Z,10.10
2022-09-16T23:09:01.389Z,10.10
2022-09-16T23:11:32.241Z,10.10
2022-09-16T23:14:01.176Z,10.10
2022-09-16T23:16:30.509Z,10.10
2022-09-16T23:19:00.252Z,10.10
2022-09-16T23:21:28.754Z,10.10
2022-09-16T23:24:01.145Z,10.10
2022-09-16T23:26:31.019Z,10.10
2022-09-16T23:29:00.456Z,10.10
2022-09-16T23:31:30.078Z,10.10
2022-09-16T23:33:58.143Z,10.10
2022-09-16T23:36:26.896Z,10.10
2022-09-16T23:38:55.010Z,10.10
2022-09-16T23:41:27.408Z,10.10
2022-09-16T23:43:56.266Z,10.10
2022-09-16T23:46:26.454Z,10.10
2022-09-16T23:48:54.360Z,10.10
2022-09-16T23:51:28.031Z,10.10
2022-09-16T23:53:57.174Z,10.10
2022-09-16T23:56:27.150Z,10.10
2022-09-16T23:58:55.358Z,10.10
